Time;durP1;ratioP1;P1;durP2;ratioP2;P2;SDS_P1;SDS_P2;PMS_P1;PMS_P2;Temp;Humidity;BMP_temperature;BMP_pressure;BME280_temperature;BME280_humidity;BME280_pressure;Samples;Min_cycle;Max_cycle;Signal;HPM_P1;HPM_P2
2022/07/17 00:00:40;;;;;;;4.55;0.30;;;18.90;66.90;;;;;;5074678;28;20025;-72
2022/07/17 00:03:05;;;;;;;1.98;0.30;;;18.90;67.00;;;;;;5074584;28;20024;-72
2022/07/17 00:05:31;;;;;;;2.28;0.32;;;18.90;67.10;;;;;;5074308;28;20077;-72
2022/07/17 00:07:57;;;;;;;4.18;0.47;;;19.10;66.90;;;;;;5074178;28;20024;-72
2022/07/17 00:10:22;;;;;;;3.47;0.28;;;19.20;66.60;;;;;;5074222;28;20028;-72
2022/07/17 00:12:48;;;;;;;2.55;0.20;;;19.20;66.60;;;;;;5074446;28;20024;-72
2022/07/17 00:15:14;;;;;;;6.25;0.30;;;19.30;66.50;;;;;;5074295;28;20036;-72
2022/07/17 00:17:40;;;;;;;3.25;0.32;;;19.50;66.20;;;;;;5074279;28;20028;-72
2022/07/17 00:20:07;;;;;;;3.72;0.30;;;19.50;65.80;;;;;;5074222;28;20108;-72
2022/07/17 00:22:33;;;;;;;3.50;0.20;;;19.60;66.10;;;;;;5073982;28;20095;-72
2022/07/17 00:24:59;;;;;;;1.95;0.20;;;19.70;66.10;;;;;;5073895;28;20111;-71
2022/07/17 00:27:24;;;;;;;2.00;0.20;;;19.80;66.00;;;;;;5073633;28;20063;-72
2022/07/17 00:29:50;;;;;;;3.85;0.85;;;19.90;65.90;;;;;;5073866;28;20032;-72
2022/07/17 00:32:16;;;;;;;3.42;0.20;;;20.00;65.60;;;;;;5074047;28;20031;-71
2022/07/17 00:34:42;;;;;;;1.73;0.20;;;20.00;65.20;;;;;;5073820;28;20040;-72
2022/07/17 00:37:08;;;;;;;2.67;0.30;;;19.90;65.00;;;;;;5074023;28;20024;-72
2022/07/17 00:39:34;;;;;;;2.33;0.40;;;19.80;65.30;;;;;;5073574;28;20050;-72
2022/07/17 00:42:00;;;;;;;3.53;0.20;;;19.80;65.40;;;;;;5073351;28;20017;-72
2022/07/17 00:44:26;;;;;;;2.15;0.20;;;19.90;65.90;;;;;;5073934;28;20025;-71
2022/07/17 00:46:52;;;;;;;2.13;0.30;;;19.90;65.60;;;;;;5073797;28;20047;-72
2022/07/17 00:49:18;;;;;;;4.20;0.40;;;20.00;65.40;;;;;;5073873;28;20400;-72
2022/07/17 00:51:43;;;;;;;2.58;0.30;;;19.90;65.20;;;;;;5073200;28;20041;-72
2022/07/17 00:54:11;;;;;;;3.60;0.22;;;19.90;65.10;;;;;;5073488;28;20439;-72
2022/07/17 00:56:39;;;;;;;2.60;0.30;;;19.80;65.00;;;;;;5073376;28;20441;-71
2022/07/17 00:59:06;;;;;;;1.85;0.25;;;19.80;65.10;;;;;;5073653;28;20025;-72
2022/07/17 01:01:32;;;;;;;1.80;0.22;;;19.80;65.10;;;;;;5073345;28;20025;-72
2022/07/17 01:03:58;;;;;;;1.92;0.20;;;19.80;65.00;;;;;;5073523;28;20098;-73
2022/07/17 01:06:23;;;;;;;2.53;0.28;;;19.90;64.90;;;;;;5073719;28;20036;-73
2022/07/17 01:08:49;;;;;;;2.13;0.30;;;19.80;64.80;;;;;;5073316;28;20485;-73
2022/07/17 01:11:15;;;;;;;2.25;0.50;;;19.80;64.90;;;;;;5073574;28;20025;-73
2022/07/17 01:13:41;;;;;;;5.32;0.40;;;19.90;64.90;;;;;;5072884;28;20028;-73
2022/07/17 01:16:08;;;;;;;2.85;0.30;;;19.90;64.70;;;;;;5073231;28;20032;-73
2022/07/17 01:18:34;;;;;;;4.22;0.30;;;19.90;64.70;;;;;;5073265;28;20029;-72
2022/07/17 01:21:06;;;;;;;3.58;0.32;;;19.90;64.80;;;;;;5073529;28;20024;-73
2022/07/17 01:23:32;;;;;;;3.85;0.50;;;19.90;64.80;;;;;;5073379;28;20027;-73
2022/07/17 01:25:58;;;;;;;3.45;0.35;;;19.90;64.60;;;;;;5073113;28;20107;-73
2022/07/17 01:28:24;;;;;;;4.13;0.40;;;19.90;64.60;;;;;;5073460;28;20024;-73
2022/07/17 01:30:51;;;;;;;2.00;0.22;;;19.90;64.70;;;;;;5073285;28;20016;-73
2022/07/17 01:33:18;;;;;;;2.88;0.30;;;19.90;64.70;;;;;;5073116;28;20405;-73
2022/07/17 01:35:44;;;;;;;4.55;0.35;;;20.00;64.60;;;;;;5073031;28;20033;-73
2022/07/17 01:38:10;;;;;;;3.03;0.20;;;20.00;64.60;;;;;;5072926;28;20379;-72
2022/07/17 01:40:36;;;;;;;3.28;0.30;;;20.00;65.00;;;;;;5072992;28;20028;-72
2022/07/17 01:43:01;;;;;;;3.28;0.30;;;20.00;64.40;;;;;;5073030;28;20078;-72
2022/07/17 01:45:27;;;;;;;2.05;0.50;;;20.00;64.50;;;;;;5072884;28;20070;-72
2022/07/17 01:47:52;;;;;;;1.60;0.30;;;19.90;64.50;;;;;;5073067;28;20104;-73
2022/07/17 01:50:18;;;;;;;3.60;0.47;;;19.90;64.70;;;;;;5072687;28;20086;-73
2022/07/17 01:52:45;;;;;;;4.15;0.40;;;19.90;64.70;;;;;;5072611;28;20033;-73
2022/07/17 01:55:14;;;;;;;3.53;0.40;;;19.90;64.50;;;;;;5076057;28;20029;-72
2022/07/17 01:57:40;;;;;;;3.20;0.30;;;19.80;64.40;;;;;;5077187;28;20021;-73
2022/07/17 02:00:09;;;;;;;3.97;0.35;;;19.80;64.50;;;;;;5076719;28;20399;-73
2022/07/17 02:02:35;;;;;;;3.30;0.30;;;19.70;64.50;;;;;;5077026;28;20046;-72
2022/07/17 02:05:01;;;;;;;3.20;0.40;;;19.70;64.80;;;;;;5076713;28;20039;-72
2022/07/17 02:07:27;;;;;;;4.07;0.30;;;19.70;64.80;;;;;;5076668;28;20052;-73
2022/07/17 02:09:52;;;;;;;1.30;0.20;;;19.60;64.90;;;;;;5076860;28;20530;-73
2022/07/17 02:12:18;;;;;;;3.47;0.30;;;19.60;64.80;;;;;;5076839;28;20031;-72
2022/07/17 02:14:44;;;;;;;3.10;0.30;;;19.60;65.00;;;;;;5076683;28;20040;-73
2022/07/17 02:17:09;;;;;;;5.45;0.50;;;19.60;65.00;;;;;;5076317;28;20045;-73
2022/07/17 02:19:35;;;;;;;2.22;0.40;;;19.60;65.00;;;;;;5076414;28;20028;-72
2022/07/17 02:22:00;;;;;;;1.92;0.57;;;19.50;65.00;;;;;;5076236;28;20029;-72
2022/07/17 02:24:26;;;;;;;1.88;0.20;;;19.50;65.10;;;;;;5076617;28;20024;-72
2022/07/17 02:26:52;;;;;;;8.32;0.63;;;19.50;65.10;;;;;;5075981;28;20107;-73
2022/07/17 02:29:17;;;;;;;2.88;0.30;;;19.50;65.00;;;;;;5076508;28;20036;-72
2022/07/17 02:31:43;;;;;;;3.10;0.30;;;19.40;65.10;;;;;;5076504;28;20367;-72
2022/07/17 02:34:09;;;;;;;3.58;0.32;;;19.50;65.10;;;;;;5076390;28;20051;-73
2022/07/17 02:36:34;;;;;;;3.38;0.70;;;19.50;65.10;;;;;;5076094;28;20052;-72
2022/07/17 02:39:01;;;;;;;2.67;0.30;;;19.50;65.20;;;;;;5076052;28;20582;-72
2022/07/17 02:41:26;;;;;;;4.60;0.30;;;19.50;65.10;;;;;;5076349;28;20020;-73
2022/07/17 02:43:52;;;;;;;2.72;0.20;;;19.60;65.20;;;;;;5076044;28;20024;-73
2022/07/17 02:46:18;;;;;;;3.45;0.30;;;19.60;65.20;;;;;;5075736;28;20060;-73
2022/07/17 02:48:43;;;;;;;3.17;0.68;;;19.60;65.20;;;;;;5076199;28;20486;-72
2022/07/17 02:51:09;;;;;;;3.63;0.50;;;19.60;65.20;;;;;;5075662;28;20133;-73
2022/07/17 02:53:35;;;;;;;3.92;0.50;;;19.60;65.10;;;;;;5075972;28;20468;-73
2022/07/17 02:56:01;;;;;;;4.28;0.43;;;19.60;65.30;;;;;;5075498;28;20426;-73
2022/07/17 02:58:26;;;;;;;2.33;0.45;;;19.70;65.20;;;;;;5075926;28;20053;-72
2022/07/17 03:00:52;;;;;;;2.15;0.32;;;19.60;65.10;;;;;;5075950;28;20035;-72
2022/07/17 03:03:20;;;;;;;3.72;0.30;;;19.60;65.10;;;;;;5075704;28;20379;-72
2022/07/17 03:05:46;;;;;;;4.13;0.30;;;19.60;65.10;;;;;;5073933;28;20028;-73
2022/07/17 03:08:13;;;;;;;2.92;0.40;;;19.50;65.20;;;;;;5075465;28;20456;-73
2022/07/17 03:10:39;;;;;;;7.93;0.68;;;19.50;65.20;;;;;;5075828;28;20028;-73
2022/07/17 03:13:05;;;;;;;3.95;0.40;;;19.40;65.30;;;;;;5075513;28;20025;-73
2022/07/17 03:15:30;;;;;;;4.90;0.30;;;19.30;65.50;;;;;;5075178;28;20033;-73
2022/07/17 03:17:56;;;;;;;2.05;0.40;;;19.20;65.80;;;;;;5075744;28;20053;-72
2022/07/17 03:20:21;;;;;;;3.03;0.30;;;19.10;65.90;;;;;;5075250;28;20476;-72
2022/07/17 03:22:47;;;;;;;5.03;0.30;;;19.10;65.90;;;;;;5075211;28;20028;-72
2022/07/17 03:25:13;;;;;;;4.30;0.20;;;19.10;66.20;;;;;;5075555;28;20020;-72
2022/07/17 03:27:38;;;;;;;3.25;0.30;;;19.20;66.10;;;;;;5075236;28;20429;-73
2022/07/17 03:30:05;;;;;;;2.67;0.40;;;19.30;66.00;;;;;;5075216;28;20375;-72
2022/07/17 03:32:31;;;;;;;2.55;0.22;;;19.20;65.70;;;;;;5075321;28;20078;-72
2022/07/17 03:34:56;;;;;;;5.90;0.38;;;19.30;65.60;;;;;;5075216;28;20032;-72
2022/07/17 03:37:22;;;;;;;4.50;0.30;;;19.30;65.50;;;;;;5075041;28;20093;-72
2022/07/17 03:39:47;;;;;;;2.65;0.60;;;19.30;65.30;;;;;;5075079;28;20491;-72
2022/07/17 03:42:13;;;;;;;2.33;0.40;;;19.30;65.20;;;;;;5074856;28;20104;-73
2022/07/17 03:44:39;;;;;;;2.78;0.40;;;19.30;65.20;;;;;;5075089;28;20029;-72
2022/07/17 03:47:04;;;;;;;1.90;0.20;;;19.30;65.40;;;;;;5074803;28;20432;-72
2022/07/17 03:49:30;;;;;;;4.25;0.57;;;19.30;65.70;;;;;;5074571;28;20028;-72
2022/07/17 03:51:55;;;;;;;2.75;0.47;;;19.30;65.80;;;;;;5074337;28;20083;-71
2022/07/17 03:54:21;;;;;;;10.00;0.43;;;19.30;65.30;;;;;;5074801;28;20067;-71
2022/07/17 03:56:47;;;;;;;3.45;0.73;;;19.40;65.30;;;;;;5074884;28;20487;-71
2022/07/17 03:59:12;;;;;;;3.88;0.55;;;19.40;65.40;;;;;;5074816;28;20067;-71
2022/07/17 04:01:38;;;;;;;3.17;0.20;;;19.40;65.50;;;;;;5074311;28;20165;-72
2022/07/17 04:04:04;;;;;;;4.18;0.68;;;19.40;65.40;;;;;;5074581;28;20048;-72
2022/07/17 04:06:29;;;;;;;3.60;0.70;;;19.40;65.40;;;;;;5074379;28;20039;-72
2022/07/17 04:08:55;;;;;;;2.08;0.40;;;19.40;65.30;;;;;;5074362;28;20024;-73
2022/07/17 04:11:21;;;;;;;2.80;0.40;;;19.40;65.20;;;;;;5074480;28;20020;-71
2022/07/17 04:13:47;;;;;;;2.97;0.30;;;19.40;65.30;;;;;;5074392;28;20440;-71
2022/07/17 04:16:12;;;;;;;2.60;0.20;;;19.40;65.20;;;;;;5073890;28;20032;-71
2022/07/17 04:18:38;;;;;;;3.92;0.40;;;19.40;65.40;;;;;;5074312;28;20070;-71
2022/07/17 04:21:09;;;;;;;5.00;0.50;;;19.40;65.30;;;;;;5074099;28;20052;-71
2022/07/17 04:23:36;;;;;;;2.53;0.50;;;19.40;65.20;;;;;;5074159;28;20031;-71
2022/07/17 04:26:03;;;;;;;1.77;0.35;;;19.40;65.20;;;;;;5074032;28;20537;-71
2022/07/17 04:28:29;;;;;;;3.08;0.30;;;19.40;65.20;;;;;;5074001;28;20020;-71
2022/07/17 04:30:54;;;;;;;4.90;0.95;;;19.30;65.30;;;;;;5073886;28;20430;-71
2022/07/17 04:33:20;;;;;;;2.33;0.35;;;19.30;65.60;;;;;;5073821;28;20025;-71
2022/07/17 04:35:46;;;;;;;2.17;0.35;;;19.20;65.70;;;;;;5073829;28;20032;-71
2022/07/17 04:38:12;;;;;;;2.33;0.60;;;19.10;65.80;;;;;;5074026;28;20023;-71
2022/07/17 04:40:39;;;;;;;3.63;0.43;;;19.00;66.70;;;;;;5073974;28;20028;-71
2022/07/17 04:43:06;;;;;;;3.78;0.40;;;19.00;66.30;;;;;;5073805;28;20070;-71
2022/07/17 04:45:32;;;;;;;2.53;0.50;;;19.00;66.50;;;;;;5073637;28;20376;-71
2022/07/17 04:47:57;;;;;;;3.10;0.40;;;18.90;66.40;;;;;;5073625;28;20127;-71
2022/07/17 04:50:23;;;;;;;6.60;0.60;;;18.90;66.50;;;;;;5073556;28;20127;-71
2022/07/17 04:52:49;;;;;;;3.50;0.63;;;18.80;66.80;;;;;;5073693;28;20033;-71
2022/07/17 04:55:15;;;;;;;2.80;0.30;;;18.60;67.20;;;;;;5073377;28;20170;-71
2022/07/17 04:57:43;;;;;;;4.63;0.40;;;18.60;67.60;;;;;;5073539;28;20067;-71
2022/07/17 05:00:11;;;;;;;5.75;0.50;;;18.60;67.90;;;;;;5073560;28;20434;-71
2022/07/17 05:02:37;;;;;;;3.90;0.32;;;18.60;67.60;;;;;;5073669;28;20062;-71
2022/07/17 05:05:03;;;;;;;4.70;0.40;;;18.70;67.50;;;;;;5073261;28;20525;-71
2022/07/17 05:07:29;;;;;;;4.75;0.70;;;18.70;67.40;;;;;;5073239;28;20028;-71
2022/07/17 05:09:55;;;;;;;2.33;0.30;;;18.90;67.50;;;;;;5073630;28;20081;-71
2022/07/17 05:12:20;;;;;;;3.28;0.40;;;18.90;67.20;;;;;;5073334;28;20479;-71
2022/07/17 05:14:46;;;;;;;2.63;0.40;;;19.00;67.10;;;;;;5073438;28;20486;-71
2022/07/17 05:17:12;;;;;;;2.53;0.30;;;19.10;66.90;;;;;;5073429;28;20020;-71
2022/07/17 05:19:37;;;;;;;4.20;0.35;;;19.00;67.00;;;;;;5072908;28;20029;-71
2022/07/17 05:22:04;;;;;;;3.58;0.50;;;19.00;67.00;;;;;;5073460;28;20032;-71
2022/07/17 05:24:30;;;;;;;3.22;0.40;;;18.90;66.80;;;;;;5073438;28;20428;-71
2022/07/17 05:26:56;;;;;;;4.47;0.73;;;18.90;67.00;;;;;;5073431;28;20108;-71
2022/07/17 05:29:22;;;;;;;6.18;0.50;;;18.80;67.00;;;;;;5072560;28;20097;-71
2022/07/17 05:31:48;;;;;;;4.47;0.50;;;18.70;67.40;;;;;;5072581;28;20108;-71
2022/07/17 05:34:14;;;;;;;4.97;0.40;;;18.40;68.00;;;;;;5073092;28;20064;-72
2022/07/17 05:36:39;;;;;;;4.20;0.50;;;18.40;68.40;;;;;;5073105;28;20020;-72
2022/07/17 05:39:05;;;;;;;5.60;0.40;;;18.40;68.50;;;;;;5073043;28;20479;-72
2022/07/17 05:41:31;;;;;;;5.10;0.45;;;18.40;68.50;;;;;;5072946;28;20066;-73
2022/07/17 05:43:56;;;;;;;5.65;0.50;;;18.40;68.80;;;;;;5072741;28;20035;-73
2022/07/17 05:46:22;;;;;;;5.50;0.70;;;18.40;68.70;;;;;;5072765;28;20126;-73
2022/07/17 05:48:47;;;;;;;7.53;0.73;;;18.50;68.80;;;;;;5072756;28;20380;-73
2022/07/17 05:51:13;;;;;;;4.90;0.52;;;18.50;68.50;;;;;;5072596;28;20075;-73
2022/07/17 05:53:39;;;;;;;6.60;0.75;;;18.50;68.70;;;;;;5072401;28;20078;-73
2022/07/17 05:56:05;;;;;;;10.73;1.00;;;18.50;68.70;;;;;;5072705;28;20036;-73
2022/07/17 05:58:31;;;;;;;6.60;0.75;;;18.50;69.00;;;;;;5072545;28;20044;-73
2022/07/17 06:00:56;;;;;;;3.85;0.57;;;18.50;69.20;;;;;;5072645;28;20032;-73
2022/07/17 06:03:22;;;;;;;4.28;0.70;;;18.40;69.20;;;;;;5072747;28;20502;-73
2022/07/17 06:05:47;;;;;;;6.18;0.60;;;18.40;69.10;;;;;;5072357;28;20086;-73
2022/07/17 06:08:13;;;;;;;4.05;0.63;;;18.40;68.90;;;;;;5072579;28;20048;-73
2022/07/17 06:10:39;;;;;;;5.88;1.08;;;18.20;69.30;;;;;;5072709;28;20471;-73
2022/07/17 06:13:05;;;;;;;5.18;0.90;;;18.20;69.80;;;;;;5072773;28;20471;-73
2022/07/17 06:15:31;;;;;;;8.07;0.82;;;18.30;69.70;;;;;;5072817;28;20044;-71
2022/07/17 06:18:01;;;;;;;5.80;0.70;;;18.30;69.50;;;;;;5072706;28;20370;-71
2022/07/17 06:20:27;;;;;;;6.10;0.93;;;18.50;69.20;;;;;;5073034;28;20348;-72
2022/07/17 06:22:52;;;;;;;3.65;0.80;;;18.60;69.40;;;;;;5072856;28;20032;-72
2022/07/17 06:25:18;;;;;;;6.32;1.63;;;18.60;69.10;;;;;;5072689;28;20016;-72
2022/07/17 06:27:43;;;;;;;4.55;0.90;;;18.70;68.70;;;;;;5072347;28;20426;-72
2022/07/17 06:30:11;;;;;;;3.20;0.60;;;18.70;69.40;;;;;;5072667;28;20021;-72
2022/07/17 06:32:36;;;;;;;4.85;0.50;;;18.80;68.50;;;;;;5072792;28;20078;-72
2022/07/17 06:35:02;;;;;;;4.10;0.60;;;18.90;68.20;;;;;;5072123;28;20036;-72
2022/07/17 06:37:28;;;;;;;3.95;0.50;;;19.10;67.80;;;;;;5072690;28;20035;-72
2022/07/17 06:39:53;;;;;;;5.93;0.65;;;19.20;67.60;;;;;;5073201;28;20056;-72
2022/07/17 06:42:19;;;;;;;3.85;0.73;;;19.30;67.30;;;;;;5075891;28;20074;-72
2022/07/17 06:44:44;;;;;;;4.15;0.65;;;19.40;66.90;;;;;;5075950;28;20413;-72
2022/07/17 06:47:10;;;;;;;5.32;0.60;;;19.40;66.60;;;;;;5076167;28;20020;-72
2022/07/17 06:49:37;;;;;;;8.43;0.80;;;19.40;66.60;;;;;;5075835;28;20028;-72
2022/07/17 06:52:02;;;;;;;5.32;0.85;;;19.60;66.70;;;;;;5075579;28;20135;-72
2022/07/17 06:54:28;;;;;;;5.25;0.50;;;19.60;66.40;;;;;;5075605;28;20116;-72
2022/07/17 06:56:54;;;;;;;3.28;0.60;;;19.50;65.70;;;;;;5075531;28;20029;-72
2022/07/17 06:59:20;;;;;;;3.72;0.40;;;19.50;66.00;;;;;;5075922;28;20394;-72
2022/07/17 07:01:46;;;;;;;3.78;0.73;;;19.60;66.10;;;;;;5075308;28;20024;-72
2022/07/17 07:04:12;;;;;;;3.55;0.68;;;19.70;65.90;;;;;;5075604;28;20025;-72
2022/07/17 07:06:38;;;;;;;5.68;0.82;;;19.80;65.80;;;;;;5075361;28;20047;-72
2022/07/17 07:09:04;;;;;;;8.73;1.00;;;19.80;66.30;;;;;;5075258;28;20105;-72
2022/07/17 07:11:29;;;;;;;8.88;1.25;;;19.70;66.30;;;;;;5075163;28;20021;-72
2022/07/17 07:13:55;;;;;;;8.00;0.70;;;19.80;66.80;;;;;;5075375;28;20024;-72
2022/07/17 07:16:21;;;;;;;3.33;0.70;;;19.70;67.60;;;;;;5075588;28;20025;-72
2022/07/17 07:18:47;;;;;;;6.28;0.75;;;19.80;67.10;;;;;;5075629;28;20541;-72
2022/07/17 07:21:12;;;;;;;6.18;0.73;;;19.90;67.10;;;;;;5075134;28;20025;-72
2022/07/17 07:23:38;;;;;;;5.60;0.70;;;19.90;66.40;;;;;;5075476;28;20037;-72
2022/07/17 07:26:03;;;;;;;5.40;0.68;;;20.00;66.10;;;;;;5074775;28;20078;-72
2022/07/17 07:28:29;;;;;;;5.07;0.70;;;20.20;65.30;;;;;;5075440;28;20035;-72
2022/07/17 07:30:55;;;;;;;6.30;0.80;;;20.30;65.00;;;;;;5075246;28;20460;-72
2022/07/17 07:33:20;;;;;;;3.33;0.60;;;20.30;65.30;;;;;;5074962;28;20020;-72
2022/07/17 07:35:46;;;;;;;4.78;0.70;;;20.40;65.20;;;;;;5075127;28;20044;-72
2022/07/17 07:38:12;;;;;;;4.00;0.40;;;20.50;65.00;;;;;;5074622;28;20020;-72
2022/07/17 07:40:37;;;;;;;5.80;0.50;;;20.60;64.70;;;;;;5074850;28;20032;-72
2022/07/17 07:43:03;;;;;;;6.20;0.40;;;20.70;64.80;;;;;;5074999;28;20028;-72
2022/07/17 07:45:30;;;;;;;6.30;0.50;;;20.80;63.50;;;;;;5074835;28;20017;-72
2022/07/17 07:47:56;;;;;;;4.57;0.43;;;20.70;63.60;;;;;;5074694;28;20024;-72
2022/07/17 07:50:23;;;;;;;6.00;0.60;;;20.60;65.40;;;;;;5074665;28;20032;-72
2022/07/17 07:52:50;;;;;;;3.22;0.32;;;20.60;64.70;;;;;;5074061;28;20445;-72
2022/07/17 07:55:16;;;;;;;7.70;0.55;;;20.70;64.80;;;;;;5074371;28;20121;-72
2022/07/17 07:57:42;;;;;;;3.80;0.43;;;20.80;63.90;;;;;;5074663;28;20059;-72
2022/07/17 08:00:09;;;;;;;6.22;0.60;;;21.00;63.40;;;;;;5074388;28;20029;-71
2022/07/17 08:02:35;;;;;;;4.20;0.65;;;21.10;63.50;;;;;;5074348;28;20099;-71
2022/07/17 08:05:01;;;;;;;5.40;0.60;;;21.20;63.20;;;;;;5074556;28;20158;-72
2022/07/17 08:07:27;;;;;;;6.38;0.60;;;21.30;62.90;;;;;;5074620;28;20071;-72
2022/07/17 08:09:53;;;;;;;4.22;0.50;;;21.20;62.70;;;;;;5074570;28;20024;-71
2022/07/17 08:12:19;;;;;;;7.88;0.77;;;21.30;62.90;;;;;;5074191;28;20028;-72
2022/07/17 08:14:45;;;;;;;5.25;0.50;;;21.30;63.10;;;;;;5074409;28;20487;-72
2022/07/17 08:17:10;;;;;;;3.55;0.60;;;21.60;62.10;;;;;;5074314;28;20020;-72
2022/07/17 08:19:36;;;;;;;8.85;0.52;;;21.40;62.10;;;;;;5074348;28;20532;-72
2022/07/17 08:22:02;;;;;;;4.53;0.68;;;21.40;63.20;;;;;;5073623;28;20052;-72
2022/07/17 08:24:27;;;;;;;5.13;0.90;;;21.50;62.20;;;;;;5073850;28;20115;-72
2022/07/17 08:26:53;;;;;;;5.90;0.47;;;21.70;62.00;;;;;;5073924;28;20033;-72
2022/07/17 08:29:18;;;;;;;3.58;0.30;;;21.90;61.30;;;;;;5074038;28;20032;-72
2022/07/17 08:31:44;;;;;;;4.15;0.57;;;22.00;61.20;;;;;;5073680;28;20012;-72
2022/07/17 08:34:10;;;;;;;4.32;0.43;;;22.00;61.60;;;;;;5073471;28;20085;-72
2022/07/17 08:36:35;;;;;;;3.63;0.50;;;22.10;61.20;;;;;;5073717;28;20101;-72
2022/07/17 08:39:01;;;;;;;2.53;0.32;;;22.20;60.60;;;;;;5073812;28;20035;-72
2022/07/17 08:41:29;;;;;;;5.75;0.80;;;22.10;61.00;;;;;;5073987;28;20456;-73
2022/07/17 08:43:54;;;;;;;4.30;0.50;;;22.20;61.20;;;;;;5073460;28;20070;-72
2022/07/17 08:46:24;;;;;;;6.95;0.68;;;22.20;61.60;;;;;;5073694;28;20117;-72
2022/07/17 08:48:52;;;;;;;2.15;0.60;;;22.20;61.10;;;;;;5073605;28;20051;-72
2022/07/17 08:51:18;;;;;;;10.23;0.60;;;22.40;61.10;;;;;;5073358;28;20093;-72
2022/07/17 08:53:44;;;;;;;4.15;0.50;;;22.60;60.70;;;;;;5073116;28;20028;-72
2022/07/17 08:56:10;;;;;;;3.72;0.30;;;22.70;59.80;;;;;;5073462;28;20103;-72
2022/07/17 08:58:36;;;;;;;4.90;0.75;;;22.90;59.60;;;;;;5073268;28;20115;-72
2022/07/17 09:01:03;;;;;;;2.15;0.30;;;23.00;57.80;;;;;;5073645;28;20078;-71
2022/07/17 09:03:28;;;;;;;4.45;0.30;;;23.00;57.80;;;;;;5073412;28;20027;-72
2022/07/17 09:05:54;;;;;;;3.53;0.40;;;23.00;57.00;;;;;;5073375;28;20025;-72
2022/07/17 09:08:22;;;;;;;4.82;1.08;;;23.20;57.30;;;;;;5073113;28;20441;-72
2022/07/17 09:10:51;;;;;;;7.13;0.63;;;23.30;57.40;;;;;;5073465;28;20032;-72
2022/07/17 09:13:22;;;;;;;4.87;0.67;;;23.40;57.70;;;;;;5073422;28;20021;-72
2022/07/17 09:15:50;;;;;;;6.90;0.70;;;23.40;56.80;;;;;;5073160;28;20416;-72
2022/07/17 09:18:17;;;;;;;2.85;0.32;;;23.20;58.20;;;;;;5073025;28;20059;-72
2022/07/17 09:20:47;;;;;;;4.00;0.43;;;23.20;57.20;;;;;;5073042;28;20426;-72
2022/07/17 09:23:12;;;;;;;4.28;1.05;;;23.40;57.10;;;;;;5072888;28;20529;-73
2022/07/17 09:25:44;;;;;;;6.18;0.50;;;23.50;57.30;;;;;;5073398;28;20108;-73
2022/07/17 09:28:12;;;;;;;5.75;0.57;;;23.60;57.40;;;;;;5073049;28;20085;-72
2022/07/17 09:30:41;;;;;;;4.60;0.40;;;23.70;57.10;;;;;;5073013;28;20038;-72
2022/07/17 09:33:11;;;;;;;4.75;0.88;;;23.90;56.30;;;;;;5073061;28;20032;-72
2022/07/17 09:35:48;;;;;;;2.70;0.38;;;23.80;55.40;;;;;;5073132;28;20037;-73
2022/07/17 09:38:35;;;;;;;5.28;0.50;;;23.90;55.50;;;;;;5073101;28;20098;-72
2022/07/17 09:41:11;;;;;;;2.92;0.50;;;24.00;55.60;;;;;;5073030;28;20044;-72
2022/07/17 09:43:38;;;;;;;3.83;0.60;;;24.20;54.60;;;;;;5073019;28;20053;-72
2022/07/17 09:46:04;;;;;;;3.03;0.50;;;24.20;54.40;;;;;;5073140;28;20024;-73
2022/07/17 09:48:32;;;;;;;6.28;1.20;;;24.20;54.80;;;;;;5073091;28;20051;-72
2022/07/17 09:50:58;;;;;;;3.05;0.50;;;24.20;54.70;;;;;;5072640;28;20102;-72
2022/07/17 09:53:24;;;;;;;4.05;0.50;;;24.30;55.00;;;;;;5072660;28;20017;-72
2022/07/17 09:55:56;;;;;;;3.60;0.30;;;24.40;56.60;;;;;;5072911;28;20093;-72
2022/07/17 09:58:24;;;;;;;6.72;0.60;;;24.40;55.00;;;;;;5072888;28;20030;-73
2022/07/17 10:00:50;;;;;;;6.32;0.80;;;24.40;54.60;;;;;;5073028;28;20103;-72
2022/07/17 10:03:19;;;;;;;3.13;0.50;;;24.50;55.10;;;;;;5072798;28;20051;-72
2022/07/17 10:05:46;;;;;;;2.78;0.40;;;24.60;54.40;;;;;;5072490;28;20120;-72
2022/07/17 10:08:12;;;;;;;3.50;0.60;;;24.60;53.90;;;;;;5072759;28;20025;-72
2022/07/17 10:10:38;;;;;;;6.97;0.80;;;24.60;54.00;;;;;;5072680;28;20056;-72
2022/07/17 10:13:04;;;;;;;4.00;0.50;;;24.70;53.90;;;;;;5072866;28;20025;-73
2022/07/17 10:15:29;;;;;;;4.22;0.43;;;24.80;53.90;;;;;;5074752;28;20032;-72
2022/07/17 10:18:08;;;;;;;3.45;0.40;;;24.80;54.00;;;;;;5076377;28;20021;-72
2022/07/17 10:20:34;;;;;;;4.00;0.40;;;24.90;53.20;;;;;;5076443;28;20135;-73
2022/07/17 10:23:10;;;;;;;3.00;0.73;;;25.00;53.10;;;;;;5076281;28;20024;-73
2022/07/17 10:25:36;;;;;;;3.55;0.60;;;25.10;53.30;;;;;;5076620;28;20028;-73
2022/07/17 10:28:01;;;;;;;14.23;1.20;;;25.10;52.70;;;;;;5076261;28;20021;-73
2022/07/17 10:30:29;;;;;;;16.30;0.70;;;25.20;53.20;;;;;;5076455;28;20581;-73
2022/07/17 10:32:58;;;;;;;3.85;0.70;;;25.30;52.60;;;;;;5076282;28;20387;-73
2022/07/17 10:35:25;;;;;;;5.47;0.63;;;25.30;52.00;;;;;;5075910;28;20472;-73
2022/07/17 10:37:51;;;;;;;3.17;1.08;;;25.30;52.40;;;;;;5075760;28;20475;-73
2022/07/17 10:40:29;;;;;;;9.88;1.48;;;25.40;52.80;;;;;;5075736;28;20050;-73
2022/07/17 10:42:58;;;;;;;3.35;0.40;;;25.50;53.70;;;;;;5076202;28;20025;-73
2022/07/17 10:45:42;;;;;;;5.93;0.77;;;25.70;52.90;;;;;;5076004;28;20021;-73
2022/07/17 10:48:19;;;;;;;4.50;0.70;;;25.80;52.70;;;;;;5075941;28;20054;-73
2022/07/17 10:50:56;;;;;;;2.28;0.43;;;25.80;51.20;;;;;;5075858;28;20055;-73
2022/07/17 10:53:28;;;;;;;2.63;0.75;;;25.80;51.40;;;;;;5075525;28;20035;-73
2022/07/17 10:56:01;;;;;;;4.55;0.60;;;25.70;52.10;;;;;;5076037;28;20060;-73
2022/07/17 10:58:33;;;;;;;8.45;0.60;;;25.70;53.10;;;;;;5075790;28;20382;-73
2022/07/17 11:01:02;;;;;;;3.15;0.50;;;25.80;52.30;;;;;;5075772;28;20365;-73
2022/07/17 11:03:29;;;;;;;2.65;0.40;;;25.80;51.50;;;;;;5075525;28;20048;-73
2022/07/17 11:05:54;;;;;;;5.72;0.70;;;25.90;51.40;;;;;;5075827;28;20020;-73
2022/07/17 11:08:20;;;;;;;2.45;0.30;;;26.00;51.30;;;;;;5075890;28;20028;-73
2022/07/17 11:10:47;;;;;;;2.85;0.30;;;26.10;51.40;;;;;;5075968;28;20059;-73
2022/07/17 11:13:15;;;;;;;3.55;0.60;;;26.20;50.90;;;;;;5075842;28;20464;-73
2022/07/17 11:15:45;;;;;;;4.72;0.50;;;26.10;50.30;;;;;;5075770;28;20045;-73
2022/07/17 11:18:21;;;;;;;5.53;0.57;;;26.20;50.40;;;;;;5075773;28;20025;-73
2022/07/17 11:20:57;;;;;;;4.22;0.38;;;26.20;50.70;;;;;;5075725;28;20060;-73
2022/07/17 11:23:26;;;;;;;2.90;0.50;;;26.30;50.60;;;;;;5075582;28;20021;-74
2022/07/17 11:25:53;;;;;;;3.10;0.57;;;26.30;51.00;;;;;;5074891;28;20052;-73
2022/07/17 11:28:36;;;;;;;3.33;0.68;;;26.40;50.80;;;;;;5074977;28;20349;-73
2022/07/17 11:31:04;;;;;;;6.25;0.70;;;26.50;51.20;;;;;;5075556;28;20031;-73
2022/07/17 11:33:30;;;;;;;6.03;0.55;;;26.60;51.00;;;;;;5075196;28;20028;-74
2022/07/17 11:35:55;;;;;;;3.60;0.50;;;26.70;50.90;;;;;;5075226;28;20036;-73
2022/07/17 11:38:29;;;;;;;4.65;0.88;;;26.90;50.50;;;;;;5075212;28;20021;-74
2022/07/17 11:40:55;;;;;;;4.15;1.00;;;26.90;50.60;;;;;;5074829;28;20480;-74
2022/07/17 11:43:21;;;;;;;1.38;0.38;;;26.90;50.70;;;;;;5074954;28;20112;-74
2022/07/17 11:45:47;;;;;;;3.65;0.63;;;27.00;51.20;;;;;;5075221;28;20067;-74
2022/07/17 11:48:13;;;;;;;4.90;1.50;;;26.90;49.80;;;;;;5075185;28;20048;-74
2022/07/17 11:50:38;;;;;;;3.20;0.50;;;26.80;50.50;;;;;;5074861;28;20049;-73
2022/07/17 11:53:05;;;;;;;4.32;0.55;;;26.80;50.40;;;;;;5074916;28;20027;-73
2022/07/17 11:55:39;;;;;;;3.20;0.40;;;26.90;51.20;;;;;;5074945;28;20040;-73
2022/07/17 11:58:05;;;;;;;3.08;0.50;;;27.10;50.90;;;;;;5074711;28;20395;-74
2022/07/17 12:00:32;;;;;;;7.22;0.93;;;27.20;50.70;;;;;;5074926;28;20024;-74
2022/07/17 12:02:59;;;;;;;3.60;0.50;;;27.30;50.10;;;;;;5075016;28;20039;-74
2022/07/17 12:05:27;;;;;;;2.25;0.40;;;27.40;49.90;;;;;;5074829;28;20028;-74
2022/07/17 12:07:53;;;;;;;6.65;0.75;;;27.50;49.90;;;;;;5074756;28;20111;-74
2022/07/17 12:10:21;;;;;;;7.03;0.70;;;27.60;50.10;;;;;;5074724;28;20048;-74
2022/07/17 12:13:04;;;;;;;4.35;0.95;;;27.60;49.40;;;;;;5074432;28;20059;-74
2022/07/17 12:15:49;;;;;;;3.90;0.80;;;27.60;49.70;;;;;;5074416;28;20028;-73
2022/07/17 12:18:23;;;;;;;9.23;0.75;;;27.60;50.60;;;;;;5074418;28;20521;-74
2022/07/17 12:20:51;;;;;;;2.88;0.43;;;27.70;49.20;;;;;;5074521;28;20056;-74
2022/07/17 12:23:30;;;;;;;2.85;0.30;;;27.70;49.10;;;;;;5074412;28;20120;-74
2022/07/17 12:26:09;;;;;;;3.80;0.73;;;27.70;49.40;;;;;;5074412;28;20044;-74
2022/07/17 12:28:35;;;;;;;5.20;0.70;;;27.90;48.70;;;;;;5074297;28;20055;-74
2022/07/17 12:31:01;;;;;;;2.50;0.60;;;28.00;49.00;;;;;;5074215;28;20487;-74
2022/07/17 12:33:27;;;;;;;5.00;0.55;;;28.00;49.10;;;;;;5074050;28;20025;-73
2022/07/17 12:35:53;;;;;;;1.60;0.45;;;28.10;48.90;;;;;;5074044;28;20112;-74
2022/07/17 12:38:18;;;;;;;1.52;0.35;;;28.20;49.30;;;;;;5073681;28;20215;-74
2022/07/17 12:40:45;;;;;;;3.35;0.50;;;28.40;48.80;;;;;;5074003;28;20074;-74
2022/07/17 12:43:11;;;;;;;5.03;0.50;;;28.50;48.50;;;;;;5073974;28;20025;-74